Time;durP1;ratioP1;P1;durP2;ratioP2;P2;SDS_P1;SDS_P2;PMS_P1;PMS_P2;Temp;Humidity;BMP_temperature;BMP_pressure;BME280_temperature;BME280_humidity;BME280_pressure;Samples;Min_cycle;Max_cycle;Signal;HPM_P1;HPM_P2
2023/06/02 00:01:53;;;;;;;4.80;2.35;;;;;;;;;;6176276;23;20033;-45
2023/06/02 00:04:26;;;;;;;5.40;2.17;;;;;;;;;;6176390;23;20630;-52
2023/06/02 00:07:03;;;;;;;4.63;2.20;;;;;;;;;;6173728;23;20040;-49
2023/06/02 00:09:31;;;;;;;5.22;2.13;;;;;;;;;;6175087;23;20025;-47
2023/06/02 00:12:06;;;;;;;6.15;2.17;;;;;;;;;;6177500;23;20028;-48
2023/06/02 00:14:33;;;;;;;4.63;2.25;;;;;;;;;;6172635;23;20068;-48
2023/06/02 00:17:01;;;;;;;5.30;1.90;;;;;;;;;;6175741;23;20504;-50
2023/06/02 00:19:35;;;;;;;4.68;1.92;;;;;;;;;;6177628;23;20025;-46
2023/06/02 00:22:03;;;;;;;7.53;2.30;;;;;;;;;;6175618;23;20052;-54
2023/06/02 00:24:38;;;;;;;5.50;1.77;;;;;;;;;;6170657;23;20021;-51
2023/06/02 00:27:07;;;;;;;12.63;2.50;;;;;;;;;;6171759;23;20021;-53
2023/06/02 00:29:48;;;;;;;6.88;2.55;;;;;;;;;;6177400;23;20096;-53
2023/06/02 00:32:29;;;;;;;6.57;1.80;;;;;;;;;;6171240;23;20071;-64
2023/06/02 00:34:56;;;;;;;6.80;1.60;;;;;;;;;;6173209;23;20095;-55
2023/06/02 00:37:31;;;;;;;5.93;2.03;;;;;;;;;;6175887;23;20108;-58
2023/06/02 00:39:58;;;;;;;3.70;2.20;;;;;;;;;;6173234;23;20021;-58
2023/06/02 00:42:25;;;;;;;3.10;2.05;;;;;;;;;;6174891;23;20112;-55
2023/06/02 00:44:59;;;;;;;4.57;2.10;;;;;;;;;;6176206;23;20021;-57
2023/06/02 00:47:33;;;;;;;2.72;1.90;;;;;;;;;;6172241;23;20099;-58
2023/06/02 00:50:14;;;;;;;2.85;1.85;;;;;;;;;;6176825;23;20032;-50
2023/06/02 00:52:42;;;;;;;4.28;2.08;;;;;;;;;;6172807;23;20523;-53
2023/06/02 00:55:15;;;;;;;4.05;2.38;;;;;;;;;;6172092;23;20029;-51
2023/06/02 00:57:51;;;;;;;5.93;2.17;;;;;;;;;;6175582;23;20025;-51
2023/06/02 01:00:25;;;;;;;5.40;1.80;;;;;;;;;;6170896;23;20115;-46
2023/06/02 01:02:59;;;;;;;7.80;2.38;;;;;;;;;;6176303;23;20032;-48
2023/06/02 01:05:27;;;;;;;4.55;2.25;;;;;;;;;;6175953;23;20059;-50
2023/06/02 01:07:58;;;;;;;4.40;2.28;;;;;;;;;;6175698;23;20025;-47
2023/06/02 01:10:32;;;;;;;5.47;2.30;;;;;;;;;;6174190;23;20395;-48
2023/06/02 01:13:06;;;;;;;4.53;2.20;;;;;;;;;;6173805;23;20091;-50
2023/06/02 01:15:34;;;;;;;8.43;2.45;;;;;;;;;;6174685;23;20488;-50
2023/06/02 01:18:01;;;;;;;3.50;2.47;;;;;;;;;;6175776;23;20021;-45
2023/06/02 01:20:39;;;;;;;5.80;2.25;;;;;;;;;;6173573;23;20021;-46
2023/06/02 01:23:13;;;;;;;6.72;2.28;;;;;;;;;;6174674;23;20024;-48
2023/06/02 01:25:49;;;;;;;3.63;2.08;;;;;;;;;;6174944;23;20025;-46
2023/06/02 01:28:17;;;;;;;4.15;2.20;;;;;;;;;;6173936;23;20028;-52
2023/06/02 01:30:53;;;;;;;3.50;2.20;;;;;;;;;;6171352;23;20425;-49
2023/06/02 01:33:39;;;;;;;5.78;2.10;;;;;;;;;;6176038;23;20076;-46
2023/06/02 01:36:14;;;;;;;3.65;2.13;;;;;;;;;;6172752;23;20075;-49
2023/06/02 01:38:42;;;;;;;2.33;1.95;;;;;;;;;;6174994;23;20040;-48
2023/06/02 01:41:16;;;;;;;4.07;2.10;;;;;;;;;;6173959;23;20379;-49
2023/06/02 01:43:45;;;;;;;4.03;2.33;;;;;;;;;;6174309;23;20386;-47
2023/06/02 01:46:32;;;;;;;5.78;2.28;;;;;;;;;;6175330;23;20489;-57
2023/06/02 01:49:16;;;;;;;4.05;1.98;;;;;;;;;;6144082;23;20033;-54
2023/06/02 01:51:57;;;;;;;8.50;2.40;;;;;;;;;;6144458;23;20362;-54
2023/06/02 01:54:24;;;;;;;5.40;2.25;;;;;;;;;;6145595;23;20554;-54
2023/06/02 01:56:59;;;;;;;4.63;2.30;;;;;;;;;;6145290;23;20029;-58
2023/06/02 01:59:26;;;;;;;6.25;2.15;;;;;;;;;;6146026;23;20064;-64
2023/06/02 02:01:53;;;;;;;7.60;2.25;;;;;;;;;;6143265;23;20057;-64
2023/06/02 02:04:29;;;;;;;4.15;2.10;;;;;;;;;;6140108;23;20028;-63
2023/06/02 02:07:03;;;;;;;6.47;2.22;;;;;;;;;;6142212;23;20025;-65
2023/06/02 16:34:12;;;;;;;2.38;0.45;;;;;;;;;;6137691;23;20051;-55
2023/06/02 16:36:47;;;;;;;1.75;0.60;;;;;;;;;;6143925;23;20021;-54
2023/06/02 16:39:17;;;;;;;3.90;0.52;;;;;;;;;;6144243;23;20029;-59
2023/06/02 16:41:44;;;;;;;;;;;;;;;;;;6148035;23;20108;-64
2023/06/02 16:44:18;;;;;;;0.90;0.55;;;;;;;;;;6144643;23;19928;-64
2023/06/02 16:46:53;;;;;;;2.75;0.70;;;;;;;;;;6146975;23;20030;-65
2023/06/02 16:49:20;;;;;;;1.75;0.60;;;;;;;;;;6142908;23;20328;-64
2023/06/02 16:51:51;;;;;;;1.17;0.60;;;;;;;;;;6142310;23;20033;-64
2023/06/02 16:54:25;;;;;;;1.98;0.68;;;;;;;;;;6141955;23;20025;-64
2023/06/02 16:56:52;;;;;;;4.47;0.65;;;;;;;;;;6141947;23;20119;-55
2023/06/02 16:59:26;;;;;;;2.15;0.65;;;;;;;;;;6140352;23;20029;-56
2023/06/02 17:01:53;;;;;;;0.73;0.43;;;;;;;;;;6141514;23;20021;-55
2023/06/02 17:04:21;;;;;;;1.65;0.50;;;;;;;;;;6140330;23;20521;-53
2023/06/02 17:06:55;;;;;;;1.38;0.63;;;;;;;;;;6141886;23;20085;-48
2023/06/02 17:09:22;;;;;;;1.55;0.50;;;;;;;;;;6141872;23;20686;-60
2023/06/02 17:11:49;;;;;;;4.18;1.00;;;;;;;;;;6144600;23;20530;-60
2023/06/02 17:14:23;;;;;;;4.05;0.60;;;;;;;;;;6140679;23;20037;-60
2023/06/02 17:16:51;;;;;;;0.88;0.40;;;;;;;;;;6143142;23;20032;-60
2023/06/02 17:19:25;;;;;;;1.40;0.68;;;;;;;;;;6139303;23;20026;-60
2023/06/02 17:21:52;;;;;;;3.17;0.77;;;;;;;;;;6140351;23;20026;-60
2023/06/02 17:24:19;;;;;;;2.95;0.88;;;;;;;;;;6137065;23;20029;-61
2023/06/02 17:26:53;;;;;;;4.93;0.60;;;;;;;;;;6144307;23;20076;-51
2023/06/02 17:29:20;;;;;;;3.47;0.50;;;;;;;;;;6137474;23;20774;-53
2023/06/02 17:31:54;;;;;;;1.60;0.32;;;;;;;;;;6144944;23;20026;-51
2023/06/02 17:34:22;;;;;;;;;;;;;;;;;;6139535;23;20029;-53
2023/06/02 17:36:55;;;;;;;11.40;1.07;;;;;;;;;;6140682;23;20360;-50
2023/06/02 17:39:30;;;;;;;3.22;0.50;;;;;;;;;;6142465;23;20103;-60
2023/06/02 17:41:57;;;;;;;1.48;0.63;;;;;;;;;;6143926;23;20080;-60
2023/06/02 17:44:25;;;;;;;0.63;0.63;;;;;;;;;;6140985;23;20029;-60
2023/06/02 17:46:59;;;;;;;0.50;0.50;;;;;;;;;;6141845;23;20084;-61
2023/06/02 17:49:35;;;;;;;1.50;0.68;;;;;;;;;;6142364;23;20029;-60
2023/06/02 17:52:02;;;;;;;1.50;1.02;;;;;;;;;;6142989;23;20080;-60
2023/06/02 17:54:30;;;;;;;;;;;;;;;;;;6143119;23;20029;-54
2023/06/02 17:57:08;;;;;;;1.55;0.70;;;;;;;;;;6143122;23;20003;-51
2023/06/02 17:59:36;;;;;;;3.63;1.10;;;;;;;;;;6142432;23;20022;-53
2023/06/02 18:02:10;;;;;;;1.67;0.73;;;;;;;;;;6142219;23;20425;-50
2023/06/02 18:04:37;;;;;;;2.78;0.75;;;;;;;;;;6141394;23;20064;-57
2023/06/02 18:07:04;;;;;;;1.38;0.73;;;;;;;;;;6142322;23;20026;-52
2023/06/02 18:09:38;;;;;;;3.25;0.63;;;;;;;;;;6139441;23;20037;-52
2023/06/02 18:12:06;;;;;;;0.98;0.70;;;;;;;;;;6143016;23;20027;-50
2023/06/02 18:14:40;;;;;;;2.58;0.75;;;;;;;;;;6141558;23;20029;-48
2023/06/02 18:17:07;;;;;;;3.65;0.85;;;;;;;;;;6142009;23;20025;-49
2023/06/02 18:19:36;;;;;;;1.48;0.90;;;;;;;;;;6143443;23;20115;-54
2023/06/02 18:22:10;;;;;;;1.80;0.52;;;;;;;;;;6143545;23;20029;-59
2023/06/02 18:24:37;;;;;;;1.63;0.65;;;;;;;;;;6141810;23;20111;-60
2023/06/02 18:27:12;;;;;;;1.15;0.80;;;;;;;;;;6142243;23;20025;-60
2023/06/02 18:29:43;;;;;;;;;;;;;;;;;;6142717;23;20030;-60
2023/06/02 18:32:10;;;;;;;1.95;0.80;;;;;;;;;;6140835;23;20448;-52
2023/06/02 18:34:50;;;;;;;4.00;1.50;;;;;;;;;;6142579;23;20290;-52
2023/06/02 18:37:18;;;;;;;2.78;0.60;;;;;;;;;;6141763;23;20055;-54
2023/06/02 18:39:52;;;;;;;3.92;0.77;;;;;;;;;;6140089;23;20338;-54
2023/06/02 18:42:19;;;;;;;10.52;0.90;;;;;;;;;;6141367;23;20040;-54
2023/06/02 18:44:46;;;;;;;1.35;0.60;;;;;;;;;;6142364;23;20025;-55
2023/06/02 18:47:20;;;;;;;5.22;1.00;;;;;;;;;;6140280;23;20551;-51
2023/06/02 18:49:47;;;;;;;2.15;0.80;;;;;;;;;;6141970;23;20033;-54
2023/06/02 18:52:22;;;;;;;2.58;0.55;;;;;;;;;;6142448;23;20021;-54
2023/06/02 18:54:49;;;;;;;1.50;0.60;;;;;;;;;;6142384;23;20084;-55
2023/06/02 18:57:18;;;;;;;3.55;0.68;;;;;;;;;;6141371;23;20022;-54
2023/06/02 18:59:52;;;;;;;0.77;0.60;;;;;;;;;;6140639;23;20033;-55
2023/06/02 19:02:19;;;;;;;0.47;0.47;;;;;;;;;;6142152;23;20025;-53
2023/06/02 19:04:47;;;;;;;2.47;0.57;;;;;;;;;;6138389;23;20108;-49
2023/06/02 19:07:21;;;;;;;7.05;0.77;;;;;;;;;;6133219;23;20116;-50
2023/06/02 19:09:49;;;;;;;0.43;0.40;;;;;;;;;;6140763;23;20455;-52
2023/06/02 19:12:23;;;;;;;0.68;0.30;;;;;;;;;;6139247;23;20029;-49
2023/06/02 19:14:50;;;;;;;3.20;0.50;;;;;;;;;;6141506;23;20030;-49
2023/06/02 19:17:17;;;;;;;1.05;0.60;;;;;;;;;;6140060;23;20101;-48
2023/06/02 19:19:51;;;;;;;3.00;0.57;;;;;;;;;;6136068;23;20025;-60
2023/06/02 19:22:18;;;;;;;1.98;0.60;;;;;;;;;;6143877;23;20021;-59
2023/06/02 19:24:45;;;;;;;2.13;0.60;;;;;;;;;;6141436;23;20433;-60
2023/06/02 19:27:20;;;;;;;1.95;0.85;;;;;;;;;;6141575;23;20021;-59
2023/06/02 19:29:47;;;;;;;1.23;0.70;;;;;;;;;;6141771;23;20041;-52
2023/06/02 19:32:21;;;;;;;2.40;0.70;;;;;;;;;;6144711;23;20092;-47
2023/06/02 19:34:55;;;;;;;1.40;0.82;;;;;;;;;;6143061;23;20029;-49
2023/06/02 19:37:29;;;;;;;1.10;0.82;;;;;;;;;;6144598;23;20025;-46
2023/06/02 19:39:56;;;;;;;1.25;0.57;;;;;;;;;;6144001;23;20029;-47
2023/06/02 19:42:23;;;;;;;2.28;0.60;;;;;;;;;;6142924;23;20041;-49
2023/06/02 19:44:57;;;;;;;1.10;0.75;;;;;;;;;;6140404;23;20242;-48
2023/06/02 19:47:24;;;;;;;2.65;0.85;;;;;;;;;;6141560;23;20437;-54
2023/06/02 19:49:58;;;;;;;3.20;0.80;;;;;;;;;;6139736;23;20048;-52
2023/06/02 19:52:26;;;;;;;;;;;;;;;;;;6140107;23;20088;-56
2023/06/02 19:54:53;;;;;;;3.83;0.80;;;;;;;;;;6143910;23;20373;-54
2023/06/02 19:57:27;;;;;;;1.45;0.65;;;;;;;;;;6139493;23;20489;-48
2023/06/02 19:59:55;;;;;;;2.97;0.73;;;;;;;;;;6144752;23;20029;-48
2023/06/02 20:02:29;;;;;;;3.90;0.80;;;;;;;;;;6143424;23;20025;-59
2023/06/02 20:04:56;;;;;;;3.20;0.60;;;;;;;;;;6141121;23;20025;-57
2023/06/02 20:07:24;;;;;;;1.98;0.98;;;;;;;;;;6143292;23;20432;-59
2023/06/02 20:09:58;;;;;;;3.03;0.75;;;;;;;;;;6141470;23;20084;-59
2023/06/02 20:12:25;;;;;;;2.25;1.00;;;;;;;;;;6143143;23;20025;-59
2023/06/02 20:14:53;;;;;;;2.08;0.75;;;;;;;;;;6142730;23;20389;-59
2023/06/02 20:17:29;;;;;;;1.38;0.60;;;;;;;;;;6138576;23;20029;-53
2023/06/02 20:19:57;;;;;;;3.22;0.73;;;;;;;;;;6143313;23;20029;-51
2023/06/02 20:22:25;;;;;;;8.38;1.52;;;;;;;;;;6142646;23;20396;-50
2023/06/02 20:24:59;;;;;;;3.22;1.00;;;;;;;;;;6143236;23;20485;-51
2023/06/02 20:27:26;;;;;;;6.22;1.30;;;;;;;;;;6139572;23;20517;-51
2023/06/02 20:30:00;;;;;;;1.35;0.70;;;;;;;;;;6144475;23;20025;-46
2023/06/02 20:32:28;;;;;;;3.38;0.80;;;;;;;;;;6140484;23;20025;-49
2023/06/02 20:34:55;;;;;;;3.50;0.82;;;;;;;;;;6143204;23;20029;-50
2023/06/02 20:37:29;;;;;;;1.42;0.52;;;;;;;;;;6143339;23;20410;-50
2023/06/02 20:39:56;;;;;;;;;;;;;;;;;;6144522;23;20029;-48
2023/06/02 20:42:23;;;;;;;0.98;0.70;;;;;;;;;;6142222;23;19920;-49
2023/06/02 20:44:57;;;;;;;8.73;0.98;;;;;;;;;;6142584;23;20025;-55
2023/06/02 20:47:24;;;;;;;3.92;0.80;;;;;;;;;;6143292;23;20092;-53
2023/06/02 20:49:58;;;;;;;1.83;0.73;;;;;;;;;;6142815;23;20077;-53
2023/06/02 20:52:25;;;;;;;;;;;;;;;;;;6143693;23;20030;-51
2023/06/02 20:54:54;;;;;;;4.88;1.42;;;;;;;;;;6143860;23;19921;-50
2023/06/02 20:57:28;;;;;;;4.15;2.03;;;;;;;;;;6142641;23;20029;-53
2023/06/02 20:59:55;;;;;;;4.13;2.17;;;;;;;;;;6143447;23;20033;-51
2023/06/02 21:02:29;;;;;;;4.80;2.38;;;;;;;;;;6142482;23;20497;-52
2023/06/02 21:04:56;;;;;;;;;;;;;;;;;;6142828;23;20560;-54
2023/06/02 21:07:25;;;;;;;2.97;1.60;;;;;;;;;;6143601;23;19975;-55
2023/06/02 21:09:59;;;;;;;2.88;1.58;;;;;;;;;;6138940;23;20501;-51
2023/06/02 21:12:26;;;;;;;5.18;1.60;;;;;;;;;;6139913;23;20036;-66
2023/06/02 21:15:00;;;;;;;7.68;1.75;;;;;;;;;;6141873;23;20025;-66
2023/06/02 21:17:27;;;;;;;4.00;1.10;;;;;;;;;;6144695;23;20032;-66
2023/06/02 21:19:54;;;;;;;4.10;1.55;;;;;;;;;;6142639;23;20060;-66
2023/06/02 21:22:28;;;;;;;1.15;0.98;;;;;;;;;;6141720;23;20021;-59
2023/06/02 21:24:57;;;;;;;2.47;1.20;;;;;;;;;;6140930;23;20138;-59
2023/06/02 21:27:24;;;;;;;9.82;0.90;;;;;;;;;;6141348;23;20084;-52
2023/06/02 21:29:58;;;;;;;6.57;1.00;;;;;;;;;;6143023;23;20017;-55
2023/06/02 21:32:25;;;;;;;1.77;1.33;;;;;;;;;;6144363;23;20032;-55
2023/06/02 21:35:06;;;;;;;2.95;0.80;;;;;;;;;;6142245;23;20029;-54
2023/06/02 21:37:33;;;;;;;1.35;1.00;;;;;;;;;;6138958;23;20084;-51
2023/06/02 21:40:07;;;;;;;2.40;1.10;;;;;;;;;;6142347;23;20041;-51
2023/06/02 21:42:35;;;;;;;;;;;;;;;;;;6139252;23;20068;-45
2023/06/02 21:45:02;;;;;;;2.95;1.20;;;;;;;;;;6142954;23;19946;-45
2023/06/02 21:47:36;;;;;;;1.33;0.95;;;;;;;;;;6142355;23;20091;-48
2023/06/02 21:50:04;;;;;;;2.95;1.30;;;;;;;;;;6141605;23;20025;-44
2023/06/02 21:52:38;;;;;;;2.15;1.00;;;;;;;;;;6145942;23;20028;-66
2023/06/02 21:55:05;;;;;;;1.95;0.90;;;;;;;;;;6144598;23;20021;-52
2023/06/02 21:57:32;;;;;;;2.90;1.15;;;;;;;;;;6145028;23;20056;-53
2023/06/02 22:00:11;;;;;;;1.23;0.60;;;;;;;;;;6144952;23;20088;-52
2023/06/02 22:02:38;;;;;;;0.73;0.70;;;;;;;;;;6141739;23;20032;-49
2023/06/02 22:05:06;;;;;;;2.60;0.80;;;;;;;;;;6144305;23;20088;-49
2023/06/02 22:07:40;;;;;;;1.70;0.80;;;;;;;;;;6147249;23;20025;-50
2023/06/02 22:10:08;;;;;;;2.92;0.90;;;;;;;;;;6145739;23;20148;-49
2023/06/02 22:12:35;;;;;;;3.25;1.30;;;;;;;;;;6145952;23;20614;-50
2023/06/02 22:15:09;;;;;;;1.05;0.90;;;;;;;;;;6144616;23;20104;-52
2023/06/02 22:17:36;;;;;;;2.17;1.00;;;;;;;;;;6145348;23;20445;-48
2023/06/02 22:20:10;;;;;;;3.40;0.90;;;;;;;;;;6145880;23;20117;-59
2023/06/02 22:22:37;;;;;;;;;;;;;;;;;;6147395;23;20950;-59
2023/06/02 22:25:05;;;;;;;3.15;1.10;;;;;;;;;;6143959;23;20447;-60
2023/06/02 22:27:39;;;;;;;0.88;0.60;;;;;;;;;;6146481;23;20419;-59
2023/06/02 22:30:07;;;;;;;8.13;1.48;;;;;;;;;;6144179;23;20552;-59
2023/06/02 22:32:41;;;;;;;1.33;0.70;;;;;;;;;;6144081;23;20029;-59
2023/06/02 22:35:21;;;;;;;1.55;1.05;;;;;;;;;;6145632;23;20426;-59
2023/06/02 22:37:56;;;;;;;0.90;0.80;;;;;;;;;;6145696;23;20057;-47
2023/06/02 22:40:30;;;;;;;4.07;1.00;;;;;;;;;;6144896;23;20025;-49
2023/06/02 22:42:57;;;;;;;1.33;0.75;;;;;;;;;;6144399;23;20792;-48
2023/06/02 22:45:25;;;;;;;1.80;1.00;;;;;;;;;;6144930;23;20026;-50
2023/06/02 22:47:59;;;;;;;1.88;0.93;;;;;;;;;;6145175;23;20080;-66
2023/06/02 22:50:27;;;;;;;2.17;0.95;;;;;;;;;;6144996;23;20152;-60
2023/06/02 22:53:01;;;;;;;4.00;1.05;;;;;;;;;;6145781;23;20029;-55
2023/06/02 22:55:29;;;;;;;2.67;1.00;;;;;;;;;;6144947;23;20029;-52
2023/06/02 22:58:03;;;;;;;2.95;1.17;;;;;;;;;;6146512;23;20033;-58
2023/06/02 23:00:30;;;;;;;2.92;1.05;;;;;;;;;;6144092;23;20036;-57
2023/06/02 23:02:57;;;;;;;2.63;1.33;;;;;;;;;;6144195;23;20477;-56
2023/06/02 23:05:31;;;;;;;1.77;1.13;;;;;;;;;;6146756;23;20097;-53
2023/06/02 23:07:58;;;;;;;2.85;1.13;;;;;;;;;;6148521;23;20101;-54
2023/06/02 23:10:33;;;;;;;1.50;1.02;;;;;;;;;;6147250;23;20036;-50
2023/06/02 23:13:06;;;;;;;2.95;1.20;;;;;;;;;;6148623;23;20080;-51
2023/06/02 23:15:40;;;;;;;2.78;1.02;;;;;;;;;;6148373;23;20025;-50
2023/06/02 23:18:14;;;;;;;1.85;1.15;;;;;;;;;;6146348;23;20489;-66
2023/06/02 23:20:41;;;;;;;4.30;1.20;;;;;;;;;;6146803;23;20026;-54
2023/06/02 23:23:09;;;;;;;2.47;1.75;;;;;;;;;;6147431;23;20108;-53
2023/06/02 23:25:43;;;;;;;2.15;0.80;;;;;;;;;;6146410;23;20105;-54
2023/06/02 23:28:17;;;;;;;2.58;1.10;;;;;;;;;;6147644;23;20088;-54
2023/06/02 23:30:51;;;;;;;1.38;0.90;;;;;;;;;;6146900;23;20025;-54
2023/06/02 23:33:31;;;;;;;2.00;1.20;;;;;;;;;;6146690;23;20409;-53
2023/06/02 23:36:05;;;;;;;1.67;1.17;;;;;;;;;;6147410;23;20026;-65
2023/06/02 23:38:32;;;;;;;;;;;;;;;;;;6143687;23;20025;-66
2023/06/02 23:41:03;;;;;;;1.20;0.85;;;;;;;;;;6146784;23;20336;-65
2023/06/02 23:43:37;;;;;;;1.93;0.80;;;;;;;;;;6146401;23;20047;-65
2023/06/02 23:46:04;;;;;;;1.35;0.90;;;;;;;;;;6145950;23;20062;-56
2023/06/02 23:48:38;;;;;;;1.67;1.15;;;;;;;;;;6148009;23;20026;-55
2023/06/02 23:51:08;;;;;;;1.92;0.80;;;;;;;;;;6146372;23;20477;-57
2023/06/02 23:53:36;;;;;;;2.45;0.98;;;;;;;;;;6146292;23;20092;-56
2023/06/02 23:56:10;;;;;;;2.72;0.90;;;;;;;;;;6146084;23;20072;-56
2023/06/02 23:58:37;;;;;;;2.33;1.10;;;;;;;;;;6145810;23;20076;-56
